sensor_id;sensor_type;location;lat;lon;timestamp;temperature;humidity
24645;DHT22;12780;45.502;9.146;2022-07-12T00:00:58;25.90;99.90
24645;DHT22;12780;45.502;9.146;2022-07-12T00:03:23;25.90;99.90
24645;DHT22;12780;45.502;9.146;2022-07-12T00:05:49;25.90;99.90
24645;DHT22;12780;45.502;9.146;2022-07-12T00:08:15;25.90;99.90
24645;DHT22;12780;45.502;9.146;2022-07-12T00:10:40;25.90;99.90
24645;DHT22;12780;45.502;9.146;2022-07-12T00:13:06;25.90;99.90
24645;DHT22;12780;45.502;9.146;2022-07-12T00:15:32;25.90;99.90
24645;DHT22;12780;45.502;9.146;2022-07-12T00:17:57;25.90;99.90
24645;DHT22;12780;45.502;9.146;2022-07-12T00:20:23;25.90;99.90
24645;DHT22;12780;45.502;9.146;2022-07-12T00:22:48;25.80;99.90
24645;DHT22;12780;45.502;9.146;2022-07-12T00:25:15;25.80;99.90
24645;DHT22;12780;45.502;9.146;2022-07-12T00:27:40;25.80;99.90
24645;DHT22;12780;45.502;9.146;2022-07-12T00:30:07;25.80;99.90
24645;DHT22;12780;45.502;9.146;2022-07-12T00:32:33;25.80;99.90
24645;DHT22;12780;45.502;9.146;2022-07-12T00:34:59;25.80;99.90
24645;DHT22;12780;45.502;9.146;2022-07-12T00:37:25;25.80;99.90
24645;DHT22;12780;45.502;9.146;2022-07-12T00:39:51;25.80;99.90
24645;DHT22;12780;45.502;9.146;2022-07-12T00:42:17;25.80;99.90
24645;DHT22;12780;45.502;9.146;2022-07-12T00:44:42;25.80;99.90
24645;DHT22;12780;45.502;9.146;2022-07-12T00:47:28;25.80;99.90
24645;DHT22;12780;45.502;9.146;2022-07-12T00:49:56;25.80;99.90
24645;DHT22;12780;45.502;9.146;2022-07-12T00:52:23;25.70;99.90
24645;DHT22;12780;45.502;9.146;2022-07-12T00:54:49;25.70;99.90
24645;DHT22;12780;45.502;9.146;2022-07-12T00:57:15;25.60;99.90
24645;DHT22;12780;45.502;9.146;2022-07-12T00:59:41;25.70;99.90
24645;DHT22;12780;45.502;9.146;2022-07-12T01:02:07;25.60;99.90
24645;DHT22;12780;45.502;9.146;2022-07-12T01:04:33;25.60;99.90
24645;DHT22;12780;45.502;9.146;2022-07-12T01:06:59;25.60;99.90
24645;DHT22;12780;45.502;9.146;2022-07-12T01:09:25;25.60;99.90
24645;DHT22;12780;45.502;9.146;2022-07-12T01:11:51;25.60;99.90
24645;DHT22;12780;45.502;9.146;2022-07-12T01:14:16;25.60;99.90
24645;DHT22;12780;45.502;9.146;2022-07-12T01:16:42;25.60;99.90
24645;DHT22;12780;45.502;9.146;2022-07-12T01:19:08;25.50;99.90
24645;DHT22;12780;45.502;9.146;2022-07-12T01:21:37;25.50;99.90
24645;DHT22;12780;45.502;9.146;2022-07-12T01:24:05;25.50;99.90
24645;DHT22;12780;45.502;9.146;2022-07-12T01:26:32;25.50;99.90
24645;DHT22;12780;45.502;9.146;2022-07-12T01:28:58;25.50;99.90
24645;DHT22;12780;45.502;9.146;2022-07-12T01:31:24;25.50;99.90
24645;DHT22;12780;45.502;9.146;2022-07-12T01:33:50;25.40;99.90
24645;DHT22;12780;45.502;9.146;2022-07-12T01:36:16;25.30;99.90
24645;DHT22;12780;45.502;9.146;2022-07-12T01:38:42;25.30;99.90
24645;DHT22;12780;45.502;9.146;2022-07-12T01:41:08;25.30;99.90
24645;DHT22;12780;45.502;9.146;2022-07-12T01:43:34;25.30;99.90
24645;DHT22;12780;45.502;9.146;2022-07-12T01:45:59;25.30;99.90
24645;DHT22;12780;45.502;9.146;2022-07-12T01:48:25;25.30;99.90
24645;DHT22;12780;45.502;9.146;2022-07-12T01:50:51;25.30;99.90
24645;DHT22;12780;45.502;9.146;2022-07-12T01:53:16;25.40;99.90
24645;DHT22;12780;45.502;9.146;2022-07-12T01:55:42;25.40;99.90
24645;DHT22;12780;45.502;9.146;2022-07-12T01:58:08;25.40;99.90
24645;DHT22;12780;45.502;9.146;2022-07-12T02:00:34;25.30;99.90
24645;DHT22;12780;45.502;9.146;2022-07-12T02:03:00;25.30;99.90
24645;DHT22;12780;45.502;9.146;2022-07-12T02:05:25;25.30;99.90
24645;DHT22;12780;45.502;9.146;2022-07-12T02:07:51;25.20;99.90
24645;DHT22;12780;45.502;9.146;2022-07-12T02:10:18;25.20;99.90
24645;DHT22;12780;45.502;9.146;2022-07-12T02:12:43;25.20;99.90
24645;DHT22;12780;45.502;9.146;2022-07-12T02:15:10;25.20;99.90
24645;DHT22;12780;45.502;9.146;2022-07-12T02:17:35;25.20;99.90
24645;DHT22;12780;45.502;9.146;2022-07-12T02:20:01;25.10;99.90
24645;DHT22;12780;45.502;9.146;2022-07-12T02:22:27;25.10;99.90
24645;DHT22;12780;45.502;9.146;2022-07-12T02:24:53;25.10;99.90
24645;DHT22;12780;45.502;9.146;2022-07-12T02:27:18;25.10;99.90
24645;DHT22;12780;45.502;9.146;2022-07-12T02:29:44;25.10;99.90
24645;DHT22;12780;45.502;9.146;2022-07-12T02:32:09;25.10;99.90
24645;DHT22;12780;45.502;9.146;2022-07-12T02:34:35;25.00;99.90
24645;DHT22;12780;45.502;9.146;2022-07-12T02:37:00;25.00;99.90
24645;DHT22;12780;45.502;9.146;2022-07-12T02:39:26;25.00;99.90
24645;DHT22;12780;45.502;9.146;2022-07-12T02:41:52;25.00;99.90
24645;DHT22;12780;45.502;9.146;2022-07-12T02:44:17;25.00;99.90
24645;DHT22;12780;45.502;9.146;2022-07-12T02:46:43;24.90;99.90
24645;DHT22;12780;45.502;9.146;2022-07-12T02:49:09;24.90;99.90
24645;DHT22;12780;45.502;9.146;2022-07-12T02:51:34;24.90;99.90
24645;DHT22;12780;45.502;9.146;2022-07-12T02:54:00;24.90;99.90
24645;DHT22;12780;45.502;9.146;2022-07-12T02:56:26;24.90;99.90
24645;DHT22;12780;45.502;9.146;2022-07-12T02:58:52;24.90;99.90
24645;DHT22;12780;45.502;9.146;2022-07-12T03:01:17;24.90;99.90
24645;DHT22;12780;45.502;9.146;2022-07-12T03:03:43;24.90;99.90
24645;DHT22;12780;45.502;9.146;2022-07-12T03:06:09;24.80;99.90
24645;DHT22;12780;45.502;9.146;2022-07-12T03:08:34;24.90;99.90
24645;DHT22;12780;45.502;9.146;2022-07-12T03:11:01;24.90;99.90
24645;DHT22;12780;45.502;9.146;2022-07-12T03:13:27;24.80;99.90
24645;DHT22;12780;45.502;9.146;2022-07-12T03:15:52;24.80;99.90
24645;DHT22;12780;45.502;9.146;2022-07-12T03:18:18;24.80;99.90
24645;DHT22;12780;45.502;9.146;2022-07-12T03:20:44;24.80;99.90
24645;DHT22;12780;45.502;9.146;2022-07-12T03:23:09;24.80;99.90
24645;DHT22;12780;45.502;9.146;2022-07-12T03:25:35;24.80;99.90
24645;DHT22;12780;45.502;9.146;2022-07-12T03:28:01;24.80;99.90
24645;DHT22;12780;45.502;9.146;2022-07-12T03:30:26;24.90;99.90
24645;DHT22;12780;45.502;9.146;2022-07-12T03:32:52;24.90;99.90
24645;DHT22;12780;45.502;9.146;2022-07-12T03:35:18;25.00;99.90
24645;DHT22;12780;45.502;9.146;2022-07-12T03:40:13;25.00;99.90
24645;DHT22;12780;45.502;9.146;2022-07-12T03:42:39;25.00;99.90
24645;DHT22;12780;45.502;9.146;2022-07-12T03:45:05;25.00;99.90
24645;DHT22;12780;45.502;9.146;2022-07-12T03:47:32;25.10;99.90
24645;DHT22;12780;45.502;9.146;2022-07-12T03:49:58;25.10;99.90
24645;DHT22;12780;45.502;9.146;2022-07-12T03:52:24;25.10;99.90
24645;DHT22;12780;45.502;9.146;2022-07-12T03:54:49;25.10;99.90
24645;DHT22;12780;45.502;9.146;2022-07-12T03:57:15;25.10;99.90
24645;DHT22;12780;45.502;9.146;2022-07-12T03:59:42;25.10;99.90
24645;DHT22;12780;45.502;9.146;2022-07-12T04:02:08;25.00;99.90
24645;DHT22;12780;45.502;9.146;2022-07-12T04:04:34;25.10;99.90
24645;DHT22;12780;45.502;9.146;2022-07-12T04:07:00;25.10;99.90
24645;DHT22;12780;45.502;9.146;2022-07-12T04:09:25;25.10;99.90
24645;DHT22;12780;45.502;9.146;2022-07-12T04:11:51;25.10;99.90
24645;DHT22;12780;45.502;9.146;2022-07-12T04:14:17;25.10;99.90
24645;DHT22;12780;45.502;9.146;2022-07-12T04:16:42;25.10;99.90
24645;DHT22;12780;45.502;9.146;2022-07-12T04:19:08;25.10;99.90
24645;DHT22;12780;45.502;9.146;2022-07-12T04:21:37;25.20;99.90
24645;DHT22;12780;45.502;9.146;2022-07-12T04:24:04;25.20;99.90
24645;DHT22;12780;45.502;9.146;2022-07-12T04:26:30;25.30;99.90
24645;DHT22;12780;45.502;9.146;2022-07-12T04:28:55;25.30;99.90
24645;DHT22;12780;45.502;9.146;2022-07-12T04:31:21;25.30;99.90
24645;DHT22;12780;45.502;9.146;2022-07-12T04:33:47;25.30;99.90
24645;DHT22;12780;45.502;9.146;2022-07-12T04:36:12;25.40;99.90
24645;DHT22;12780;45.502;9.146;2022-07-12T04:38:38;25.40;99.90
24645;DHT22;12780;45.502;9.146;2022-07-12T04:41:03;25.30;99.90
24645;DHT22;12780;45.502;9.146;2022-07-12T04:43:29;25.30;99.90
24645;DHT22;12780;45.502;9.146;2022-07-12T04:45:55;25.30;99.90
24645;DHT22;12780;45.502;9.146;2022-07-12T04:48:20;25.30;99.90
24645;DHT22;12780;45.502;9.146;2022-07-12T04:50:46;25.40;99.90
24645;DHT22;12780;45.502;9.146;2022-07-12T04:53:12;25.40;99.90
24645;DHT22;12780;45.502;9.146;2022-07-12T04:55:38;25.40;99.90
24645;DHT22;12780;45.502;9.146;2022-07-12T04:58:03;25.30;99.90
24645;DHT22;12780;45.502;9.146;2022-07-12T05:00:32;25.40;99.90
24645;DHT22;12780;45.502;9.146;2022-07-12T05:02:57;25.30;99.90
24645;DHT22;12780;45.502;9.146;2022-07-12T05:05:23;25.30;99.90
24645;DHT22;12780;45.502;9.146;2022-07-12T05:07:49;25.30;99.90
24645;DHT22;12780;45.502;9.146;2022-07-12T05:10:14;25.40;99.90
24645;DHT22;12780;45.502;9.146;2022-07-12T05:12:40;25.40;99.90
24645;DHT22;12780;45.502;9.146;2022-07-12T05:15:06;25.40;99.90
24645;DHT22;12780;45.502;9.146;2022-07-12T05:17:33;25.40;99.90
24645;DHT22;12780;45.502;9.146;2022-07-12T05:19:58;25.40;99.90
24645;DHT22;12780;45.502;9.146;2022-07-12T05:22:24;25.40;99.90
24645;DHT22;12780;45.502;9.146;2022-07-12T05:24:50;25.50;99.90
24645;DHT22;12780;45.502;9.146;2022-07-12T05:27:16;25.50;99.90
24645;DHT22;12780;45.502;9.146;2022-07-12T05:29:41;25.50;99.90
24645;DHT22;12780;45.502;9.146;2022-07-12T05:32:07;25.60;99.90
24645;DHT22;12780;45.502;9.146;2022-07-12T05:34:33;25.70;99.90
24645;DHT22;12780;45.502;9.146;2022-07-12T05:36:59;25.70;99.90
24645;DHT22;12780;45.502;9.146;2022-07-12T05:39:24;25.70;99.90
24645;DHT22;12780;45.502;9.146;2022-07-12T05:41:50;25.70;99.90
24645;DHT22;12780;45.502;9.146;2022-07-12T05:44:16;25.70;99.90
24645;DHT22;12780;45.502;9.146;2022-07-12T05:46:44;25.80;99.90
24645;DHT22;12780;45.502;9.146;2022-07-12T05:49:10;25.80;99.90
24645;DHT22;12780;45.502;9.146;2022-07-12T05:51:36;25.80;99.90
24645;DHT22;12780;45.502;9.146;2022-07-12T05:54:20;25.90;99.90
24645;DHT22;12780;45.502;9.146;2022-07-12T05:56:46;25.90;99.90
24645;DHT22;12780;45.502;9.146;2022-07-12T05:59:11;25.90;99.90
24645;DHT22;12780;45.502;9.146;2022-07-12T06:01:37;26.00;99.90
24645;DHT22;12780;45.502;9.146;2022-07-12T06:04:03;26.00;99.90
24645;DHT22;12780;45.502;9.146;2022-07-12T06:06:28;26.10;99.90
24645;DHT22;12780;45.502;9.146;2022-07-12T06:08:54;26.10;99.90
24645;DHT22;12780;45.502;9.146;2022-07-12T06:11:20;26.10;99.90
24645;DHT22;12780;45.502;9.146;2022-07-12T06:13:46;26.10;99.90
24645;DHT22;12780;45.502;9.146;2022-07-12T06:16:11;26.20;99.90
24645;DHT22;12780;45.502;9.146;2022-07-12T06:18:37;26.20;99.90
24645;DHT22;12780;45.502;9.146;2022-07-12T06:21:03;26.20;99.90
24645;DHT22;12780;45.502;9.146;2022-07-12T06:23:30;26.10;99.90
24645;DHT22;12780;45.502;9.146;2022-07-12T06:25:55;26.10;99.90
24645;DHT22;12780;45.502;9.146;2022-07-12T06:28:21;26.10;99.90
24645;DHT22;12780;45.502;9.146;2022-07-12T06:30:47;26.10;99.90
24645;DHT22;12780;45.502;9.146;2022-07-12T06:33:13;26.00;99.90
24645;DHT22;12780;45.502;9.146;2022-07-12T06:35:38;26.00;99.90
24645;DHT22;12780;45.502;9.146;2022-07-12T06:38:05;26.10;99.90
24645;DHT22;12780;45.502;9.146;2022-07-12T06:40:31;26.10;99.90
24645;DHT22;12780;45.502;9.146;2022-07-12T06:42:56;26.30;99.90
24645;DHT22;12780;45.502;9.146;2022-07-12T06:45:23;26.30;99.90
24645;DHT22;12780;45.502;9.146;2022-07-12T06:47:49;26.40;99.90
24645;DHT22;12780;45.502;9.146;2022-07-12T06:50:14;26.40;99.90
24645;DHT22;12780;45.502;9.146;2022-07-12T06:52:40;26.40;99.90
24645;DHT22;12780;45.502;9.146;2022-07-12T06:55:07;26.40;99.90
24645;DHT22;12780;45.502;9.146;2022-07-12T06:57:33;26.50;99.90
24645;DHT22;12780;45.502;9.146;2022-07-12T07:00:00;26.60;99.90
24645;DHT22;12780;45.502;9.146;2022-07-12T07:02:26;26.60;99.90
24645;DHT22;12780;45.502;9.146;2022-07-12T07:04:52;26.60;99.90
24645;DHT22;12780;45.502;9.146;2022-07-12T07:07:17;26.70;99.90
24645;DHT22;12780;45.502;9.146;2022-07-12T07:09:43;26.70;99.90
24645;DHT22;12780;45.502;9.146;2022-07-12T07:12:09;26.70;99.90
24645;DHT22;12780;45.502;9.146;2022-07-12T07:14:35;26.70;99.90
24645;DHT22;12780;45.502;9.146;2022-07-12T07:17:01;26.80;99.90
24645;DHT22;12780;45.502;9.146;2022-07-12T07:19:26;26.90;99.90
24645;DHT22;12780;45.502;9.146;2022-07-12T07:21:55;26.90;99.90
24645;DHT22;12780;45.502;9.146;2022-07-12T07:24:21;26.90;99.90
24645;DHT22;12780;45.502;9.146;2022-07-12T07:26:48;26.90;99.90
24645;DHT22;12780;45.502;9.146;2022-07-12T07:29:15;26.90;99.90
24645;DHT22;12780;45.502;9.146;2022-07-12T07:32:00;26.90;99.90
24645;DHT22;12780;45.502;9.146;2022-07-12T07:34:25;26.90;99.90
24645;DHT22;12780;45.502;9.146;2022-07-12T07:36:52;27.00;99.90
24645;DHT22;12780;45.502;9.146;2022-07-12T07:39:18;27.00;99.90
24645;DHT22;12780;45.502;9.146;2022-07-12T07:41:43;27.10;99.90
24645;DHT22;12780;45.502;9.146;2022-07-12T07:44:09;27.20;99.90
24645;DHT22;12780;45.502;9.146;2022-07-12T07:46:35;27.20;99.90
24645;DHT22;12780;45.502;9.146;2022-07-12T07:49:01;27.20;99.90
24645;DHT22;12780;45.502;9.146;2022-07-12T07:51:26;27.30;99.90
24645;DHT22;12780;45.502;9.146;2022-07-12T07:53:52;27.30;99.90
24645;DHT22;12780;45.502;9.146;2022-07-12T07:56:18;27.40;99.90
24645;DHT22;12780;45.502;9.146;2022-07-12T07:58:44;27.40;99.90
24645;DHT22;12780;45.502;9.146;2022-07-12T08:01:09;27.30;99.90
24645;DHT22;12780;45.502;9.146;2022-07-12T08:03:35;27.30;99.90
24645;DHT22;12780;45.502;9.146;2022-07-12T08:06:01;27.30;99.90
24645;DHT22;12780;45.502;9.146;2022-07-12T08:08:27;27.30;99.90
24645;DHT22;12780;45.502;9.146;2022-07-12T08:10:56;27.30;99.90
24645;DHT22;12780;45.502;9.146;2022-07-12T08:13:22;27.30;99.90
24645;DHT22;12780;45.502;9.146;2022-07-12T08:15:49;27.50;99.90
24645;DHT22;12780;45.502;9.146;2022-07-12T08:18:15;27.80;99.90
24645;DHT22;12780;45.502;9.146;2022-07-12T08:20:40;27.80;99.90
24645;DHT22;12780;45.502;9.146;2022-07-12T08:23:06;27.80;99.90
24645;DHT22;12780;45.502;9.146;2022-07-12T08:25:32;27.90;99.90
24645;DHT22;12780;45.502;9.146;2022-07-12T08:27:58;28.00;99.90
24645;DHT22;12780;45.502;9.146;2022-07-12T08:30:24;28.10;99.90
24645;DHT22;12780;45.502;9.146;2022-07-12T08:32:50;28.10;99.90
24645;DHT22;12780;45.502;9.146;2022-07-12T08:35:15;28.10;99.90
24645;DHT22;12780;45.502;9.146;2022-07-12T08:37:42;28.10;99.90
24645;DHT22;12780;45.502;9.146;2022-07-12T08:40:08;28.10;99.90
24645;DHT22;12780;45.502;9.146;2022-07-12T08:42:35;28.20;99.90
24645;DHT22;12780;45.502;9.146;2022-07-12T08:45:01;28.40;99.90
24645;DHT22;12780;45.502;9.146;2022-07-12T08:47:28;28.40;99.90
24645;DHT22;12780;45.502;9.146;2022-07-12T08:52:49;28.70;99.90
24645;DHT22;12780;45.502;9.146;2022-07-12T08:57:44;28.80;99.90
24645;DHT22;12780;45.502;9.146;2022-07-12T09:00:11;28.80;99.90
24645;DHT22;12780;45.502;9.146;2022-07-12T09:02:51;28.90;99.90
24645;DHT22;12780;45.502;9.146;2022-07-12T09:05:19;28.90;99.90
24645;DHT22;12780;45.502;9.146;2022-07-12T09:07:46;28.70;99.90
24645;DHT22;12780;45.502;9.146;2022-07-12T09:10:12;28.60;99.90
24645;DHT22;12780;45.502;9.146;2022-07-12T09:12:39;28.50;99.90
24645;DHT22;12780;45.502;9.146;2022-07-12T09:15:18;28.40;99.90
24645;DHT22;12780;45.502;9.146;2022-07-12T09:20:35;28.20;99.90
24645;DHT22;12780;45.502;9.146;2022-07-12T09:23:07;28.30;99.90
24645;DHT22;12780;45.502;9.146;2022-07-12T09:25:34;28.40;99.90
24645;DHT22;12780;45.502;9.146;2022-07-12T09:28:04;28.50;99.90
24645;DHT22;12780;45.502;9.146;2022-07-12T09:30:30;28.50;99.90
24645;DHT22;12780;45.502;9.146;2022-07-12T09:33:04;28.30;99.90
24645;DHT22;12780;45.502;9.146;2022-07-12T09:38:38;28.10;99.90
24645;DHT22;12780;45.502;9.146;2022-07-12T09:41:05;28.20;99.90
24645;DHT22;12780;45.502;9.146;2022-07-12T09:43:31;28.40;99.90
24645;DHT22;12780;45.502;9.146;2022-07-12T09:45:58;28.50;99.90
24645;DHT22;12780;45.502;9.146;2022-07-12T09:48:26;28.60;99.90
24645;DHT22;12780;45.502;9.146;2022-07-12T09:50:56;28.70;99.90
24645;DHT22;12780;45.502;9.146;2022-07-12T09:53:31;28.80;99.90
24645;DHT22;12780;45.502;9.146;2022-07-12T09:56:04;28.90;99.90
24645;DHT22;12780;45.502;9.146;2022-07-12T09:58:34;28.90;99.90
24645;DHT22;12780;45.502;9.146;2022-07-12T10:01:01;28.80;99.90
24645;DHT22;12780;45.502;9.146;2022-07-12T10:03:30;28.80;99.90
24645;DHT22;12780;45.502;9.146;2022-07-12T10:05:59;28.70;99.90
24645;DHT22;12780;45.502;9.146;2022-07-12T10:08:25;28.70;99.90
24645;DHT22;12780;45.502;9.146;2022-07-12T10:10:51;28.80;99.90
24645;DHT22;12780;45.502;9.146;2022-07-12T10:13:19;28.80;99.90
24645;DHT22;12780;45.502;9.146;2022-07-12T10:15:46;28.90;99.90
24645;DHT22;12780;45.502;9.146;2022-07-12T10:18:20;29.00;99.90
24645;DHT22;12780;45.502;9.146;2022-07-12T10:20:47;29.00;99.90
24645;DHT22;12780;45.502;9.146;2022-07-12T10:25:44;28.90;99.90
24645;DHT22;12780;45.502;9.146;2022-07-12T10:28:10;28.90;99.90
24645;DHT22;12780;45.502;9.146;2022-07-12T10:30:49;29.10;99.90
24645;DHT22;12780;45.502;9.146;2022-07-12T10:33:23;29.30;99.90
24645;DHT22;12780;45.502;9.146;2022-07-12T10:38:28;29.60;99.90
24645;DHT22;12780;45.502;9.146;2022-07-12T10:40:54;29.70;99.90
24645;DHT22;12780;45.502;9.146;2022-07-12T10:43:21;29.70;99.90
24645;DHT22;12780;45.502;9.146;2022-07-12T10:45:48;29.60;99.90
24645;DHT22;12780;45.502;9.146;2022-07-12T10:56:10;29.50;99.90
24645;DHT22;12780;45.502;9.146;2022-07-12T10:58:39;29.60;99.90
24645;DHT22;12780;45.502;9.146;2022-07-12T11:01:07;29.80;99.90
24645;DHT22;12780;45.502;9.146;2022-07-12T11:03:44;29.90;99.90
24645;DHT22;12780;45.502;9.146;2022-07-12T11:06:18;29.90;99.90
24645;DHT22;12780;45.502;9.146;2022-07-12T11:09:00;29.90;99.90
24645;DHT22;12780;45.502;9.146;2022-07-12T11:11:34;30.00;99.90
24645;DHT22;12780;45.502;9.146;2022-07-12T11:14:01;30.20;99.90
24645;DHT22;12780;45.502;9.146;2022-07-12T11:16:29;30.20;99.90
24645;DHT22;12780;45.502;9.146;2022-07-12T11:18:55;30.20;99.90
24645;DHT22;12780;45.502;9.146;2022-07-12T11:21:21;30.30;99.90
24645;DHT22;12780;45.502;9.146;2022-07-12T11:23:47;30.50;99.90
24645;DHT22;12780;45.502;9.146;2022-07-12T11:26:13;30.60;99.90
24645;DHT22;12780;45.502;9.146;2022-07-12T11:28:41;30.60;99.90
24645;DHT22;12780;45.502;9.146;2022-07-12T11:31:12;30.60;99.90
24645;DHT22;12780;45.502;9.146;2022-07-12T11:33:43;30.80;99.90
24645;DHT22;12780;45.502;9.146;2022-07-12T11:36:11;30.90;99.90
24645;DHT22;12780;45.502;9.146;2022-07-12T11:38:38;31.00;99.90
24645;DHT22;12780;45.502;9.146;2022-07-12T11:41:06;31.10;99.90
24645;DHT22;12780;45.502;9.146;2022-07-12T11:43:35;31.20;99.90
24645;DHT22;12780;45.502;9.146;2022-07-12T11:46:02;31.30;99.90
24645;DHT22;12780;45.502;9.146;2022-07-12T11:48:29;31.40;99.90
24645;DHT22;12780;45.502;9.146;2022-07-12T11:51:03;31.50;99.90
24645;DHT22;12780;45.502;9.146;2022-07-12T11:53:30;31.50;99.90
24645;DHT22;12780;45.502;9.146;2022-07-12T11:55:58;31.40;99.90
24645;DHT22;12780;45.502;9.146;2022-07-12T11:58:25;31.50;99.90
24645;DHT22;12780;45.502;9.146;2022-07-12T12:00:52;31.60;99.90
24645;DHT22;12780;45.502;9.146;2022-07-12T12:03:19;31.70;99.90
24645;DHT22;12780;45.502;9.146;2022-07-12T12:05:49;31.80;99.90
24645;DHT22;12780;45.502;9.146;2022-07-12T12:08:15;31.90;99.90
24645;DHT22;12780;45.502;9.146;2022-07-12T12:10:43;31.90;99.90
24645;DHT22;12780;45.502;9.146;2022-07-12T12:13:17;31.60;99.90
24645;DHT22;12780;45.502;9.146;2022-07-12T12:15:51;31.80;99.90
24645;DHT22;12780;45.502;9.146;2022-07-12T12:18:26;31.70;99.90
24645;DHT22;12780;45.502;9.146;2022-07-12T12:20:57;31.50;99.90
24645;DHT22;12780;45.502;9.146;2022-07-12T12:23:24;31.50;99.90
24645;DHT22;12780;45.502;9.146;2022-07-12T12:25:49;31.60;99.90
24645;DHT22;12780;45.502;9.146;2022-07-12T12:28:15;31.70;99.90
24645;DHT22;12780;45.502;9.146;2022-07-12T12:30:53;31.90;99.90
24645;DHT22;12780;45.502;9.146;2022-07-12T12:33:36;32.10;99.90
24645;DHT22;12780;45.502;9.146;2022-07-12T12:36:19;32.10;99.90
24645;DHT22;12780;45.502;9.146;2022-07-12T12:38:48;32.00;99.90
24645;DHT22;12780;45.502;9.146;2022-07-12T12:41:14;32.20;99.90
24645;DHT22;12780;45.502;9.146;2022-07-12T12:43:41;32.10;99.90
24645;DHT22;12780;45.502;9.146;2022-07-12T12:46:07;32.00;99.90
24645;DHT22;12780;45.502;9.146;2022-07-12T12:48:33;32.00;99.90
24645;DHT22;12780;45.502;9.146;2022-07-12T12:51:05;32.10;99.90
24645;DHT22;12780;45.502;9.146;2022-07-12T12:53:31;32.10;99.90
24645;DHT22;12780;45.502;9.146;2022-07-12T12:55:57;32.20;99.90
24645;DHT22;12780;45.502;9.146;2022-07-12T12:58:24;32.10;99.90
24645;DHT22;12780;45.502;9.146;2022-07-12T13:00:52;32.10;99.90
24645;DHT22;12780;45.502;9.146;2022-07-12T13:03:20;32.20;99.90
24645;DHT22;12780;45.502;9.146;2022-07-12T13:05:47;32.30;99.90
24645;DHT22;12780;45.502;9.146;2022-07-12T13:08:14;32.40;99.90
24645;DHT22;12780;45.502;9.146;2022-07-12T13:10:42;32.50;99.90
24645;DHT22;12780;45.502;9.146;2022-07-12T13:13:09;32.50;99.90
24645;DHT22;12780;45.502;9.146;2022-07-12T13:15:35;32.50;99.90
24645;DHT22;12780;45.502;9.146;2022-07-12T13:18:01;32.40;99.90
24645;DHT22;12780;45.502;9.146;2022-07-12T13:20:30;32.40;99.90
24645;DHT22;12780;45.502;9.146;2022-07-12T13:22:56;32.40;99.90
24645;DHT22;12780;45.502;9.146;2022-07-12T13:25:22;32.40;99.90
24645;DHT22;12780;45.502;9.146;2022-07-12T13:27:48;32.30;99.90
24645;DHT22;12780;45.502;9.146;2022-07-12T13:30:15;32.00;99.90
24645;DHT22;12780;45.502;9.146;2022-07-12T13:32:42;31.90;99.90
24645;DHT22;12780;45.502;9.146;2022-07-12T13:35:09;32.00;99.90
24645;DHT22;12780;45.502;9.146;2022-07-12T13:37:37;32.00;99.90
24645;DHT22;12780;45.502;9.146;2022-07-12T13:40:03;32.00;99.90
24645;DHT22;12780;45.502;9.146;2022-07-12T13:42:52;32.10;99.90
24645;DHT22;12780;45.502;9.146;2022-07-12T13:45:21;32.00;99.90
24645;DHT22;12780;45.502;9.146;2022-07-12T13:47:48;32.00;99.90
24645;DHT22;12780;45.502;9.146;2022-07-12T13:50:17;32.00;99.90
24645;DHT22;12780;45.502;9.146;2022-07-12T13:52:44;31.90;99.90
24645;DHT22;12780;45.502;9.146;2022-07-12T13:55:11;32.00;99.90
24645;DHT22;12780;45.502;9.146;2022-07-12T13:57:38;32.00;99.90
24645;DHT22;12780;45.502;9.146;2022-07-12T14:00:06;32.10;99.90
24645;DHT22;12780;45.502;9.146;2022-07-12T14:02:35;32.10;99.90
24645;DHT22;12780;45.502;9.146;2022-07-12T14:05:02;32.00;99.90
24645;DHT22;12780;45.502;9.146;2022-07-12T14:07:29;32.10;99.90
24645;DHT22;12780;45.502;9.146;2022-07-12T14:09:55;32.10;99.90
24645;DHT22;12780;45.502;9.146;2022-07-12T14:12:21;32.10;99.90
24645;DHT22;12780;45.502;9.146;2022-07-12T14:14:47;32.20;99.90
24645;DHT22;12780;45.502;9.146;2022-07-12T14:17:31;32.20;99.90
24645;DHT22;12780;45.502;9.146;2022-07-12T14:19:58;32.10;99.90
24645;DHT22;12780;45.502;9.146;2022-07-12T14:22:24;32.20;99.90
24645;DHT22;12780;45.502;9.146;2022-07-12T14:24:50;32.20;99.90
24645;DHT22;12780;45.502;9.146;2022-07-12T14:27:15;32.20;99.90
24645;DHT22;12780;45.502;9.146;2022-07-12T14:29:41;32.30;99.90
24645;DHT22;12780;45.502;9.146;2022-07-12T14:32:07;32.40;99.90
24645;DHT22;12780;45.502;9.146;2022-07-12T14:34:32;32.40;99.90
24645;DHT22;12780;45.502;9.146;2022-07-12T14:36:58;32.50;99.90
24645;DHT22;12780;45.502;9.146;2022-07-12T14:39:24;32.50;99.90
24645;DHT22;12780;45.502;9.146;2022-07-12T14:41:49;32.40;99.90
24645;DHT22;12780;45.502;9.146;2022-07-12T14:44:15;32.40;99.90
24645;DHT22;12780;45.502;9.146;2022-07-12T14:46:41;32.30;99.90
24645;DHT22;12780;45.502;9.146;2022-07-12T14:49:06;32.20;99.90
24645;DHT22;12780;45.502;9.146;2022-07-12T14:51:32;32.20;99.90
24645;DHT22;12780;45.502;9.146;2022-07-12T14:53:57;32.00;99.90
24645;DHT22;12780;45.502;9.146;2022-07-12T14:56:23;32.00;99.90
24645;DHT22;12780;45.502;9.146;2022-07-12T14:58:49;31.90;99.90
24645;DHT22;12780;45.502;9.146;2022-07-12T15:01:14;31.90;99.90
24645;DHT22;12780;45.502;9.146;2022-07-12T15:03:40;31.80;99.90
24645;DHT22;12780;45.502;9.146;2022-07-12T15:06:06;31.70;99.90
24645;DHT22;12780;45.502;9.146;2022-07-12T15:08:31;31.80;99.90
24645;DHT22;12780;45.502;9.146;2022-07-12T15:10:57;31.80;99.90
24645;DHT22;12780;45.502;9.146;2022-07-12T15:13:23;31.80;99.90
24645;DHT22;12780;45.502;9.146;2022-07-12T15:15:50;31.80;99.90
24645;DHT22;12780;45.502;9.146;2022-07-12T15:18:16;31.70;99.90
24645;DHT22;12780;45.502;9.146;2022-07-12T15:20:42;31.70;99.90
24645;DHT22;12780;45.502;9.146;2022-07-12T15:23:08;31.70;99.90
24645;DHT22;12780;45.502;9.146;2022-07-12T15:25:33;31.70;99.90
24645;DHT22;12780;45.502;9.146;2022-07-12T15:27:59;31.70;99.90
24645;DHT22;12780;45.502;9.146;2022-07-12T15:30:25;31.70;99.90
24645;DHT22;12780;45.502;9.146;2022-07-12T15:32:51;31.80;99.90
24645;DHT22;12780;45.502;9.146;2022-07-12T15:35:17;31.80;99.90
24645;DHT22;12780;45.502;9.146;2022-07-12T15:37:43;31.90;99.90
24645;DHT22;12780;45.502;9.146;2022-07-12T15:40:09;32.00;99.90
24645;DHT22;12780;45.502;9.146;2022-07-12T15:42:35;31.90;99.90
24645;DHT22;12780;45.502;9.146;2022-07-12T15:45:01;32.00;99.90
24645;DHT22;12780;45.502;9.146;2022-07-12T15:47:27;31.90;99.90
24645;DHT22;12780;45.502;9.146;2022-07-12T15:49:53;32.00;99.90
24645;DHT22;12780;45.502;9.146;2022-07-12T15:52:18;32.00;99.90
24645;DHT22;12780;45.502;9.146;2022-07-12T15:55:03;31.90;99.90